KE8BSM Weather Reports


Display with metric or nautical units.
time (UTC)temp
F
wind
direction
speed
MPH
gust
MPH
rain 1hr
in
rain 24hr
in
rain mn
in
humidity
%
barometer
mb
20220705132004 71 270 1.0 3.0 0.00 3.16 0.86 98 987.7
20220705131004 71 176 1.0 3.0 0.00 3.16 0.86 99 987.7
20220705130004 71 131 0.0 2.0 0.00 3.16 0.86 99 987.8
20220705125003 71 133 1.0 3.0 0.00 3.16 0.86 99 987.8
20220705124004 70 158 1.0 2.0 0.00 3.16 0.86 99 987.9
20220705123004 70 72 0.0 3.0 0.00 3.16 0.86 99 987.8
20220705122003 70 196 1.0 3.0 0.00 3.16 0.86 100 987.8
20220705121004 70 154 2.0 7.0 0.00 3.16 0.86 100 987.8
20220705120003 70 123 2.0 3.0 0.00 3.16 0.86 99 987.9
20220705115004 70 158 2.0 3.0 0.00 3.16 0.86 99 987.7
20220705114004 70 144 2.0 6.0 0.00 3.16 0.86 99 987.9
20220705113004 69 127 2.0 3.0 0.00 3.16 0.86 99 987.7
20220705112003 69 125 3.0 6.0 0.00 3.16 0.86 99 987.7
20220705111003 69 114 3.0 5.0 0.00 3.16 0.86 99 987.7
20220705110004 69 142 2.0 5.0 0.00 3.16 0.86 99 987.8
20220705105003 69 146 2.0 5.0 0.00 3.16 0.86 99 987.7
20220705104004 69 130 2.0 5.0 0.00 3.16 0.86 99 987.5
20220705103004 69 141 2.0 5.0 0.00 3.16 0.86 99 987.5
20220705102004 69 121 3.0 6.0 0.00 3.16 0.86 99 987.4
20220705101003 69 131 3.0 6.0 0.00 3.16 0.86 99 987.3
20220705100004 69 132 3.0 6.0 0.00 3.16 0.86 99 987.3
20220705095003 69 142 3.0 6.0 0.00 3.16 0.86 99 987.2
20220705094003 69 125 3.0 6.0 0.00 3.16 0.86 99 987.1
20220705093004 69 137 3.0 7.0 0.00 3.16 0.86 99 987.0
20220705092004 70 148 3.0 7.0 0.00 3.16 0.86 99 987.0
20220705091004 70 114 3.0 5.0 0.00 3.16 0.86 99 986.9
20220705090004 70 130 5.0 8.0 0.00 3.16 0.86 99 986.8
20220705085004 70 124 5.0 6.0 0.00 3.16 0.86 99 986.9
20220705084004 70 145 5.0 7.0 0.00 3.16 0.86 99 987.1
20220705083003 70 129 5.0 7.0 0.00 3.16 0.86 99 987.1
20220705082004 70 141 5.0 6.0 0.00 3.16 0.86 99 987.0
20220705081003 71 129 5.0 7.0 0.00 3.16 0.86 99 987.0
20220705080004 71 136 5.0 6.0 0.00 3.16 0.86 99 986.8
20220705075004 71 131 5.0 6.0 0.00 3.16 0.86 99 987.2
20220705074004 71 134 5.0 5.0 0.00 3.16 0.86 99 987.4
20220705073003 71 134 5.0 6.0 0.00 3.16 0.86 99 987.2
20220705072004 70 142 5.0 6.0 0.00 3.15 0.86 99 987.2
20220705071003 70 91 3.0 5.0 0.00 3.15 0.86 99 987.0
20220705070004 70 90 3.0 5.0 0.00 3.15 0.86 99 986.8
20220705065003 70 79 3.0 5.0 0.00 3.15 0.86 99 986.9
20220705064003 70 90 5.0 5.0 0.00 3.15 0.86 99 987.1
20220705063004 70 90 5.0 5.0 0.00 3.15 0.86 99 987.1
20220705062004 70 116 3.0 5.0 0.00 3.15 0.86 99 987.2
20220705061004 70 135 4.0 5.0 0.17 3.15 0.86 99 987.3
20220705060003 70 133 3.0 5.0 0.17 3.15 0.86 99 987.3
20220705055004 70 136 4.0 5.0 0.20 3.15 0.86 99 987.6
20220705054003 70 133 5.0 6.0 0.21 3.15 0.86 99 987.7
20220705053004 70 138 2.0 5.0 0.27 3.15 0.86 99 987.8
20220705052004 70 140 3.0 5.0 0.29 3.15 0.86 99 987.5
20220705051004 70 122 3.0 3.0 0.23 2.98 0.69 99 987.9
20220705050004 70 131 3.0 5.0 0.68 2.98 0.68 99 988.6
20220705045003 70 148 3.0 6.0 1.01 2.95 0.66 99 988.4
20220705044004 70 130 3.0 5.0 1.50 2.95 0.65 99 988.8
20220705043005 70 140 2.0 5.0 1.68 2.88 0.59 99 988.0
20220705042003 70 93 5.0 6.0 1.71 2.86 0.57 99 988.5
20220705041004 70 132 3.0 5.0 1.60 2.75 0.45 99 989.0
20220705040004 71 126 2.0 7.0 1.36 2.29 0.00 99 989.5
20220705035003 71 17 2.0 8.0 1.27 1.99 1.99 99 989.3
20220705034003 71 116 1.0 3.0 0.89 1.45 1.45 98 988.4
20220705033003 71 22 0.0 2.0 0.66 1.21 1.21 97 988.6
20220705032003 72 256 1.0 3.0 0.61 1.16 1.16 96 988.7
20220705031004 73 262 0.0 0.0 0.61 1.15 1.15 95 988.4
20220705030004 75 262 0.0 1.0 0.46 0.98 0.98 91 988.5
20220705025004 76 257 0.0 1.0 0.36 0.74 0.73 84 988.6
20220705024004 76 116 0.0 0.0 0.47 0.58 0.56 81 988.2
20220705023003 75 116 0.0 1.0 0.50 0.57 0.55 82 988.0
20220705022003 75 106 0.0 0.0 0.51 0.56 0.55 85 988.2
20220705021004 75 106 0.0 1.0 0.51 0.66 0.54 87 988.4
20220705020003 75 163 0.0 0.0 0.49 0.70 0.52 86 988.8
20220705015003 75 163 0.0 1.0 0.34 0.55 0.37 88 989.1
20220705014004 75 144 0.0 1.0 0.07 0.28 0.10 87 989.2
20220705013003 75 338 0.0 1.0 0.03 0.24 0.05 87 989.2
20220705012003 75 329 0.0 1.0 0.02 0.22 0.04 87 989.1
20220705011004 76 147 0.0 0.0 0.01 0.21 0.03 86 989.0
20220705010007 76 147 0.0 1.0 0.01 0.21 0.03 84 989.2
20220705005004 77 118 1.0 1.0 0.01 0.21 0.03 82 989.2
20220705004004 78 359 0.0 3.0 0.01 0.21 0.03 77 989.9
20220705003004 79 138 0.0 2.0 0.00 0.20 0.02 72 989.4
20220705002004 79 118 0.0 1.0 0.00 0.20 0.02 69 989.8
20220705001004 79 80 0.0 1.0 0.01 0.20 0.02 68 989.5
20220705000003 79 82 0.0 0.0 0.01 0.20 0.02 71 989.2
20220704235003 79 79 0.0 1.0 0.01 0.20 0.02 72 989.3
20220704234003 79 50 0.0 0.0 0.01 0.20 0.02 73 989.7
20220704233003 80 50 0.0 1.0 0.01 0.20 0.02 73 989.8
20220704232004 80 92 0.0 0.0 0.02 0.20 0.02 72 990.0
20220704231003 80 92 0.0 0.0 0.01 0.20 0.01 70 989.7
20220704230004 81 92 0.0 0.0 0.01 0.20 0.01 70 989.6
20220704225004 81 92 0.0 2.0 0.01 0.19 0.01 66 989.5
20220704224003 82 64 0.0 2.0 0.00 0.19 0.00 63 990.0
20220704223003 82 116 0.0 1.0 0.00 0.19 0.00 60 990.2
20220704222003 83 73 0.0 1.0 0.00 0.18 0.00 58 990.4
20220704221003 83 108 0.0 1.0 0.00 0.18 0.00 57 990.6
20220704220003 83 106 1.0 1.0 0.00 0.18 0.00 56 990.5
20220704215004 83 52 0.0 1.0 0.00 0.18 0.00 56 990.4
20220704214003 83 71 0.0 1.0 0.00 0.18 0.00 54 990.5
20220704213004 83 79 0.0 1.0 0.00 0.18 0.00 54 990.4
20220704212004 84 70 0.0 1.0 0.00 0.18 0.00 53 990.5
20220704211004 84 115 1.0 3.0 0.00 0.18 0.00 49 991.0
20220704210004 85 128 1.0 2.0 0.00 0.18 0.00 49 991.2
20220704205004 85 78 1.0 3.0 0.00 0.18 0.00 47 991.2
20220704204003 85 139 1.0 5.0 0.00 0.18 0.00 48 991.2
20220704203004 86 66 2.0 3.0 0.00 0.18 0.00 47 991.1
20220704202004 86 66 2.0 5.0 0.00 0.18 0.00 45 991.2
20220704201004 87 46 1.0 3.0 0.00 0.18 0.00 46 991.3
20220704200003 87 164 1.0 5.0 0.00 0.18 0.00 44 991.2
20220704195003 86 75 1.0 3.0 0.00 0.18 0.00 45 991.4
20220704194004 86 74 2.0 5.0 0.00 0.18 0.00 45 991.5
20220704193004 85 79 1.0 3.0 0.00 0.18 0.00 49 991.8
20220704192003 85 28 1.0 3.0 0.00 0.18 0.00 47 992.0
20220704191004 85 95 1.0 2.0 0.00 0.18 0.00 47 992.1
20220704190003 85 48 1.0 2.0 0.00 0.18 0.00 48 992.2
20220704185004 85 108 3.0 5.0 0.00 0.18 0.00 44 992.4
20220704184004 85 87 2.0 5.0 0.00 0.18 0.00 45 992.5
20220704183004 85 73 3.0 6.0 0.00 0.18 0.00 45 992.6
20220704182004 85 99 1.0 7.0 0.00 0.18 0.00 45 992.9
20220704181003 85 291 2.0 5.0 0.00 0.18 0.00 44 992.9
20220704180004 84 115 2.0 5.0 0.00 0.18 0.00 45 993.1
20220704175003 84 113 1.0 3.0 0.00 0.18 0.00 47 993.3
20220704174003 84 74 1.0 6.0 0.00 0.18 0.00 46 993.4
20220704173003 84 122 1.0 5.0 0.00 0.18 0.00 50 993.5
20220704172003 84 64 2.0 5.0 0.00 0.18 0.00 48 993.5
20220704171003 83 89 1.0 5.0 0.00 0.18 0.00 51 993.7
20220704170004 83 106 2.0 5.0 0.00 0.18 0.00 48 993.9
20220704165003 83 167 2.0 3.0 0.00 0.18 0.00 51 993.9
20220704164004 82 62 1.0 3.0 0.00 0.18 0.00 52 994.0
20220704163004 82 75 1.0 3.0 0.00 0.18 0.00 54 994.1
20220704162003 82 97 1.0 3.0 0.00 0.18 0.00 54 994.0
20220704161003 81 122 2.0 3.0 0.00 0.18 0.00 54 994.0
20220704160003 81 94 2.0 3.0 0.00 0.18 0.00 53 994.1
20220704155004 81 83 1.0 3.0 0.00 0.18 0.00 55 993.9
20220704154003 81 79 1.0 3.0 0.00 0.18 0.00 53 994.1
20220704153003 80 69 0.0 3.0 0.00 0.18 0.00 57 994.0
20220704152003 80 59 0.0 3.0 0.00 0.18 0.00 56 994.2
20220704151003 80 124 0.0 3.0 0.00 0.18 0.00 55 994.4
20220704150004 79 173 1.0 3.0 0.00 0.18 0.00 58 994.5
20220704145004 79 81 1.0 3.0 0.00 0.18 0.00 61 994.7
20220704144004 78 107 1.0 3.0 0.00 0.18 0.00 59 994.7
20220704143004 78 117 1.0 3.0 0.00 0.18 0.00 65 994.9
20220704142004 77 75 0.0 2.0 0.00 0.18 0.00 65 995.1
20220704141003 77 43 0.0 1.0 0.00 0.18 0.00 66 995.2
20220704140003 77 18 0.0 1.0 0.00 0.18 0.00 65 995.4
20220704135003 76 296 0.0 2.0 0.00 0.18 0.00 65 995.2
20220704134004 76 187 1.0 6.0 0.00 0.18 0.00 65 995.3
20220704133004 75 141 1.0 2.0 0.00 0.18 0.00 63 995.3